sensor_id;sensor_type;location;lat;lon;timestamp;temperature;humidity
10010;DHT22;5044;48.652;9.250;2024-01-11T00:00:30;-5.60;99.90
10010;DHT22;5044;48.652;9.250;2024-01-11T00:02:57;-5.60;99.90
10010;DHT22;5044;48.652;9.250;2024-01-11T00:05:24;-5.60;99.90
10010;DHT22;5044;48.652;9.250;2024-01-11T00:07:52;-5.70;99.90
10010;DHT22;5044;48.652;9.250;2024-01-11T00:10:19;-5.70;99.90
10010;DHT22;5044;48.652;9.250;2024-01-11T00:12:47;-5.70;99.90
10010;DHT22;5044;48.652;9.250;2024-01-11T00:15:13;-5.70;99.90
10010;DHT22;5044;48.652;9.250;2024-01-11T00:17:39;-4.80;99.90
10010;DHT22;5044;48.652;9.250;2024-01-11T00:20:07;-5.90;99.90
10010;DHT22;5044;48.652;9.250;2024-01-11T00:22:34;-5.80;99.90
10010;DHT22;5044;48.652;9.250;2024-01-11T00:25:03;-5.80;99.90
10010;DHT22;5044;48.652;9.250;2024-01-11T00:27:30;-5.70;99.90
10010;DHT22;5044;48.652;9.250;2024-01-11T00:29:57;-5.70;99.90
10010;DHT22;5044;48.652;9.250;2024-01-11T00:32:24;-5.90;99.90
10010;DHT22;5044;48.652;9.250;2024-01-11T00:34:50;-6.00;99.90
10010;DHT22;5044;48.652;9.250;2024-01-11T00:37:18;-6.00;99.90
10010;DHT22;5044;48.652;9.250;2024-01-11T00:39:45;-6.00;99.90
10010;DHT22;5044;48.652;9.250;2024-01-11T00:42:13;-6.00;99.90
10010;DHT22;5044;48.652;9.250;2024-01-11T00:44:40;-5.90;99.90
10010;DHT22;5044;48.652;9.250;2024-01-11T00:47:07;-5.90;99.90
10010;DHT22;5044;48.652;9.250;2024-01-11T00:49:33;-5.90;99.90
10010;DHT22;5044;48.652;9.250;2024-01-11T00:52:00;-5.90;99.90
10010;DHT22;5044;48.652;9.250;2024-01-11T00:54:27;-6.00;99.90
10010;DHT22;5044;48.652;9.250;2024-01-11T00:56:54;-6.00;99.90
10010;DHT22;5044;48.652;9.250;2024-01-11T00:59:22;-6.10;99.90
10010;DHT22;5044;48.652;9.250;2024-01-11T01:01:49;-6.10;99.90
10010;DHT22;5044;48.652;9.250;2024-01-11T01:04:16;-6.20;99.90
10010;DHT22;5044;48.652;9.250;2024-01-11T01:06:43;-6.10;99.90
10010;DHT22;5044;48.652;9.250;2024-01-11T01:09:10;-6.10;99.90
10010;DHT22;5044;48.652;9.250;2024-01-11T01:11:37;-6.00;99.90
10010;DHT22;5044;48.652;9.250;2024-01-11T01:14:04;-6.10;99.90
10010;DHT22;5044;48.652;9.250;2024-01-11T01:16:32;-6.20;99.90
10010;DHT22;5044;48.652;9.250;2024-01-11T01:18:59;-6.20;99.90
10010;DHT22;5044;48.652;9.250;2024-01-11T01:21:26;-6.20;99.90
10010;DHT22;5044;48.652;9.250;2024-01-11T01:23:53;-5.20;99.90
10010;DHT22;5044;48.652;9.250;2024-01-11T01:26:20;-6.10;99.90
10010;DHT22;5044;48.652;9.250;2024-01-11T01:28:47;-6.30;99.90
10010;DHT22;5044;48.652;9.250;2024-01-11T01:31:14;-6.30;99.90
10010;DHT22;5044;48.652;9.250;2024-01-11T01:33:42;-6.30;99.90
10010;DHT22;5044;48.652;9.250;2024-01-11T01:36:10;-6.30;99.90
10010;DHT22;5044;48.652;9.250;2024-01-11T01:38:37;-6.30;99.90
10010;DHT22;5044;48.652;9.250;2024-01-11T01:41:04;-6.30;99.90
10010;DHT22;5044;48.652;9.250;2024-01-11T01:43:31;-6.30;99.90
10010;DHT22;5044;48.652;9.250;2024-01-11T01:45:58;-6.30;99.90
10010;DHT22;5044;48.652;9.250;2024-01-11T01:48:25;-6.30;99.90
10010;DHT22;5044;48.652;9.250;2024-01-11T01:50:54;-5.30;99.90
10010;DHT22;5044;48.652;9.250;2024-01-11T01:53:22;-6.30;99.90
10010;DHT22;5044;48.652;9.250;2024-01-11T01:55:51;-6.40;99.90
10010;DHT22;5044;48.652;9.250;2024-01-11T01:58:19;-6.40;99.90
10010;DHT22;5044;48.652;9.250;2024-01-11T02:00:47;-6.40;99.90
10010;DHT22;5044;48.652;9.250;2024-01-11T02:03:16;-6.50;99.90
10010;DHT22;5044;48.652;9.250;2024-01-11T02:05:43;-6.40;99.90
10010;DHT22;5044;48.652;9.250;2024-01-11T02:08:16;-6.40;99.90
10010;DHT22;5044;48.652;9.250;2024-01-11T02:10:43;-6.10;99.90
10010;DHT22;5044;48.652;9.250;2024-01-11T02:13:11;-6.50;99.90
10010;DHT22;5044;48.652;9.250;2024-01-11T02:15:38;-6.50;99.90
10010;DHT22;5044;48.652;9.250;2024-01-11T02:18:05;-6.60;99.90
10010;DHT22;5044;48.652;9.250;2024-01-11T02:20:32;-6.20;99.90
10010;DHT22;5044;48.652;9.250;2024-01-11T02:23:03;-6.50;99.90
10010;DHT22;5044;48.652;9.250;2024-01-11T02:25:31;-6.00;99.90
10010;DHT22;5044;48.652;9.250;2024-01-11T02:27:58;-6.60;99.90
10010;DHT22;5044;48.652;9.250;2024-01-11T02:30:25;-6.60;99.90
10010;DHT22;5044;48.652;9.250;2024-01-11T02:32:53;-6.50;99.90
10010;DHT22;5044;48.652;9.250;2024-01-11T02:35:20;-6.60;99.90
10010;DHT22;5044;48.652;9.250;2024-01-11T02:37:48;-6.60;99.90
10010;DHT22;5044;48.652;9.250;2024-01-11T02:40:15;-6.60;99.90
10010;DHT22;5044;48.652;9.250;2024-01-11T02:42:43;-6.50;99.90
10010;DHT22;5044;48.652;9.250;2024-01-11T02:45:11;-6.50;99.90
10010;DHT22;5044;48.652;9.250;2024-01-11T02:47:39;-6.50;99.90
10010;DHT22;5044;48.652;9.250;2024-01-11T02:50:06;-6.40;99.90
10010;DHT22;5044;48.652;9.250;2024-01-11T02:52:33;-6.60;99.90
10010;DHT22;5044;48.652;9.250;2024-01-11T02:55:03;-6.70;99.90
10010;DHT22;5044;48.652;9.250;2024-01-11T02:57:30;-6.70;99.90
10010;DHT22;5044;48.652;9.250;2024-01-11T02:59:58;-6.70;99.90
10010;DHT22;5044;48.652;9.250;2024-01-11T03:02:25;-6.70;99.90
10010;DHT22;5044;48.652;9.250;2024-01-11T03:04:52;-6.70;99.90
10010;DHT22;5044;48.652;9.250;2024-01-11T03:07:19;-6.70;99.90
10010;DHT22;5044;48.652;9.250;2024-01-11T03:09:46;-6.70;99.90
10010;DHT22;5044;48.652;9.250;2024-01-11T03:12:12;-6.80;99.90
10010;DHT22;5044;48.652;9.250;2024-01-11T03:14:39;-6.80;99.90
10010;DHT22;5044;48.652;9.250;2024-01-11T03:17:07;-6.80;99.90
10010;DHT22;5044;48.652;9.250;2024-01-11T03:19:39;-6.80;99.90
10010;DHT22;5044;48.652;9.250;2024-01-11T03:22:06;-6.80;99.90
10010;DHT22;5044;48.652;9.250;2024-01-11T03:24:33;-6.70;99.90
10010;DHT22;5044;48.652;9.250;2024-01-11T03:26:59;-6.70;99.90
10010;DHT22;5044;48.652;9.250;2024-01-11T03:29:26;-6.70;99.90
10010;DHT22;5044;48.652;9.250;2024-01-11T03:31:53;-6.80;99.90
10010;DHT22;5044;48.652;9.250;2024-01-11T03:34:21;-6.90;99.90
10010;DHT22;5044;48.652;9.250;2024-01-11T03:36:48;-6.80;99.90
10010;DHT22;5044;48.652;9.250;2024-01-11T03:39:15;-6.80;99.90
10010;DHT22;5044;48.652;9.250;2024-01-11T03:41:43;-6.80;99.90
10010;DHT22;5044;48.652;9.250;2024-01-11T03:44:10;-6.70;99.90
10010;DHT22;5044;48.652;9.250;2024-01-11T03:46:37;-6.70;99.90
10010;DHT22;5044;48.652;9.250;2024-01-11T03:49:04;-6.70;99.90
10010;DHT22;5044;48.652;9.250;2024-01-11T03:51:34;-6.70;99.90
10010;DHT22;5044;48.652;9.250;2024-01-11T03:54:01;-6.80;99.90
10010;DHT22;5044;48.652;9.250;2024-01-11T03:56:30;-6.80;99.90
10010;DHT22;5044;48.652;9.250;2024-01-11T03:58:56;-6.90;99.90
10010;DHT22;5044;48.652;9.250;2024-01-11T04:01:23;-6.90;99.90
10010;DHT22;5044;48.652;9.250;2024-01-11T04:03:50;-6.00;99.90
10010;DHT22;5044;48.652;9.250;2024-01-11T04:06:21;-6.90;99.90
10010;DHT22;5044;48.652;9.250;2024-01-11T04:08:50;-6.50;99.90
10010;DHT22;5044;48.652;9.250;2024-01-11T04:11:17;-6.90;99.90
10010;DHT22;5044;48.652;9.250;2024-01-11T04:13:44;-6.80;99.90
10010;DHT22;5044;48.652;9.250;2024-01-11T04:16:11;-6.80;99.90
10010;DHT22;5044;48.652;9.250;2024-01-11T04:18:40;-6.90;99.90
10010;DHT22;5044;48.652;9.250;2024-01-11T04:21:06;-6.90;99.90
10010;DHT22;5044;48.652;9.250;2024-01-11T04:23:33;-6.80;99.90
10010;DHT22;5044;48.652;9.250;2024-01-11T04:26:03;-6.80;99.90
10010;DHT22;5044;48.652;9.250;2024-01-11T04:28:30;-6.90;99.90
10010;DHT22;5044;48.652;9.250;2024-01-11T04:30:56;-6.90;99.90
10010;DHT22;5044;48.652;9.250;2024-01-11T04:33:23;-6.90;99.90
10010;DHT22;5044;48.652;9.250;2024-01-11T04:35:50;-6.80;99.90
10010;DHT22;5044;48.652;9.250;2024-01-11T04:38:17;-6.80;99.90
10010;DHT22;5044;48.652;9.250;2024-01-11T04:40:43;-6.80;99.90
10010;DHT22;5044;48.652;9.250;2024-01-11T04:43:12;-6.80;99.90
10010;DHT22;5044;48.652;9.250;2024-01-11T04:45:38;-6.80;99.90
10010;DHT22;5044;48.652;9.250;2024-01-11T04:48:05;-6.80;99.90
10010;DHT22;5044;48.652;9.250;2024-01-11T04:50:32;-6.80;99.90
10010;DHT22;5044;48.652;9.250;2024-01-11T04:52:59;-6.90;99.90
10010;DHT22;5044;48.652;9.250;2024-01-11T04:55:26;-6.80;99.90
10010;DHT22;5044;48.652;9.250;2024-01-11T04:57:53;-6.80;99.90
10010;DHT22;5044;48.652;9.250;2024-01-11T05:00:21;-6.80;99.90
10010;DHT22;5044;48.652;9.250;2024-01-11T05:02:48;-6.80;99.90
10010;DHT22;5044;48.652;9.250;2024-01-11T05:05:15;-6.90;99.90
10010;DHT22;5044;48.652;9.250;2024-01-11T05:07:42;-6.80;99.90
10010;DHT22;5044;48.652;9.250;2024-01-11T05:10:09;-6.90;99.90
10010;DHT22;5044;48.652;9.250;2024-01-11T05:12:35;-6.90;99.90
10010;DHT22;5044;48.652;9.250;2024-01-11T05:15:04;-6.90;99.90
10010;DHT22;5044;48.652;9.250;2024-01-11T05:17:33;-6.90;99.90
10010;DHT22;5044;48.652;9.250;2024-01-11T05:19:59;-6.90;99.90
10010;DHT22;5044;48.652;9.250;2024-01-11T05:22:26;-6.90;99.90
10010;DHT22;5044;48.652;9.250;2024-01-11T05:24:55;-7.00;99.90
10010;DHT22;5044;48.652;9.250;2024-01-11T05:27:21;-7.00;99.90
10010;DHT22;5044;48.652;9.250;2024-01-11T05:29:48;-7.10;99.90
10010;DHT22;5044;48.652;9.250;2024-01-11T05:32:15;-7.00;99.90
10010;DHT22;5044;48.652;9.250;2024-01-11T05:34:44;-7.10;99.90
10010;DHT22;5044;48.652;9.250;2024-01-11T05:37:11;-7.10;99.90
10010;DHT22;5044;48.652;9.250;2024-01-11T05:39:38;-7.10;99.90
10010;DHT22;5044;48.652;9.250;2024-01-11T05:42:05;-7.20;99.90
10010;DHT22;5044;48.652;9.250;2024-01-11T05:44:32;-7.10;99.90
10010;DHT22;5044;48.652;9.250;2024-01-11T05:46:59;-7.00;99.90
10010;DHT22;5044;48.652;9.250;2024-01-11T05:49:26;-7.10;99.90
10010;DHT22;5044;48.652;9.250;2024-01-11T05:51:54;-7.20;99.90
10010;DHT22;5044;48.652;9.250;2024-01-11T05:54:21;-7.20;99.90
10010;DHT22;5044;48.652;9.250;2024-01-11T05:56:48;-7.20;99.90
10010;DHT22;5044;48.652;9.250;2024-01-11T05:59:21;-7.30;99.90
10010;DHT22;5044;48.652;9.250;2024-01-11T06:01:48;-7.20;99.90
10010;DHT22;5044;48.652;9.250;2024-01-11T06:04:15;-7.20;99.90
10010;DHT22;5044;48.652;9.250;2024-01-11T06:06:41;-7.20;99.90
10010;DHT22;5044;48.652;9.250;2024-01-11T06:09:10;-7.10;99.90
10010;DHT22;5044;48.652;9.250;2024-01-11T06:11:37;-7.00;99.90
10010;DHT22;5044;48.652;9.250;2024-01-11T06:14:03;-7.00;99.90
10010;DHT22;5044;48.652;9.250;2024-01-11T06:16:30;-7.10;99.90
10010;DHT22;5044;48.652;9.250;2024-01-11T06:18:57;-7.00;99.90
10010;DHT22;5044;48.652;9.250;2024-01-11T06:21:24;-7.00;99.90
10010;DHT22;5044;48.652;9.250;2024-01-11T06:23:51;-7.00;99.90
10010;DHT22;5044;48.652;9.250;2024-01-11T06:26:19;-6.10;99.90
10010;DHT22;5044;48.652;9.250;2024-01-11T06:28:46;-6.90;99.90
10010;DHT22;5044;48.652;9.250;2024-01-11T06:31:13;-7.00;99.90
10010;DHT22;5044;48.652;9.250;2024-01-11T06:33:40;-7.00;99.90
10010;DHT22;5044;48.652;9.250;2024-01-11T06:36:07;-7.10;99.90
10010;DHT22;5044;48.652;9.250;2024-01-11T06:38:34;-7.00;99.90
10010;DHT22;5044;48.652;9.250;2024-01-11T06:41:01;-7.10;99.90
10010;DHT22;5044;48.652;9.250;2024-01-11T06:43:29;-7.00;99.90
10010;DHT22;5044;48.652;9.250;2024-01-11T06:45:56;-7.00;99.90
10010;DHT22;5044;48.652;9.250;2024-01-11T06:48:23;-7.10;99.90
10010;DHT22;5044;48.652;9.250;2024-01-11T06:50:49;-7.10;99.90
10010;DHT22;5044;48.652;9.250;2024-01-11T06:53:16;-7.00;99.90
10010;DHT22;5044;48.652;9.250;2024-01-11T06:55:43;-7.10;99.90
10010;DHT22;5044;48.652;9.250;2024-01-11T06:58:10;-7.20;99.90
10010;DHT22;5044;48.652;9.250;2024-01-11T07:00:38;-7.20;99.90
10010;DHT22;5044;48.652;9.250;2024-01-11T07:03:08;-7.20;99.90
10010;DHT22;5044;48.652;9.250;2024-01-11T07:05:36;-7.20;99.90
10010;DHT22;5044;48.652;9.250;2024-01-11T07:08:03;-7.20;99.90
10010;DHT22;5044;48.652;9.250;2024-01-11T07:10:30;-7.20;99.90
10010;DHT22;5044;48.652;9.250;2024-01-11T07:12:57;-7.20;99.90
10010;DHT22;5044;48.652;9.250;2024-01-11T07:15:24;-7.30;99.90
10010;DHT22;5044;48.652;9.250;2024-01-11T07:17:54;-7.30;99.90
10010;DHT22;5044;48.652;9.250;2024-01-11T07:20:21;-7.30;99.90
10010;DHT22;5044;48.652;9.250;2024-01-11T07:22:48;-7.30;99.90
10010;DHT22;5044;48.652;9.250;2024-01-11T07:25:15;-7.40;99.90
10010;DHT22;5044;48.652;9.250;2024-01-11T07:27:42;-7.40;99.90
10010;DHT22;5044;48.652;9.250;2024-01-11T07:30:11;-7.30;99.90
10010;DHT22;5044;48.652;9.250;2024-01-11T07:32:38;-7.30;99.90
10010;DHT22;5044;48.652;9.250;2024-01-11T07:35:07;-7.40;99.90
10010;DHT22;5044;48.652;9.250;2024-01-11T07:37:36;-7.40;99.90
10010;DHT22;5044;48.652;9.250;2024-01-11T07:40:03;-7.50;99.90
10010;DHT22;5044;48.652;9.250;2024-01-11T07:42:30;-7.50;99.90
10010;DHT22;5044;48.652;9.250;2024-01-11T07:44:57;-7.40;99.90
10010;DHT22;5044;48.652;9.250;2024-01-11T07:47:24;-7.40;99.90
10010;DHT22;5044;48.652;9.250;2024-01-11T07:49:51;-7.40;99.90
10010;DHT22;5044;48.652;9.250;2024-01-11T07:52:19;-7.40;99.90
10010;DHT22;5044;48.652;9.250;2024-01-11T07:54:46;-7.40;99.90
10010;DHT22;5044;48.652;9.250;2024-01-11T07:57:13;-7.40;99.90
10010;DHT22;5044;48.652;9.250;2024-01-11T07:59:40;-7.20;99.90
10010;DHT22;5044;48.652;9.250;2024-01-11T08:02:07;-7.20;99.90
10010;DHT22;5044;48.652;9.250;2024-01-11T08:04:34;-6.90;99.90
10010;DHT22;5044;48.652;9.250;2024-01-11T08:07:03;-6.80;99.90
10010;DHT22;5044;48.652;9.250;2024-01-11T08:09:31;-6.80;99.90
10010;DHT22;5044;48.652;9.250;2024-01-11T08:11:57;-6.80;99.90
10010;DHT22;5044;48.652;9.250;2024-01-11T08:14:24;-6.70;99.90
10010;DHT22;5044;48.652;9.250;2024-01-11T08:16:51;-6.60;99.90
10010;DHT22;5044;48.652;9.250;2024-01-11T08:19:19;-6.40;99.90
10010;DHT22;5044;48.652;9.250;2024-01-11T08:21:46;-6.40;99.90
10010;DHT22;5044;48.652;9.250;2024-01-11T08:24:12;-6.30;99.90
10010;DHT22;5044;48.652;9.250;2024-01-11T08:26:41;-6.30;99.90
10010;DHT22;5044;48.652;9.250;2024-01-11T08:29:08;-6.20;99.90
10010;DHT22;5044;48.652;9.250;2024-01-11T08:31:35;-6.20;99.90
10010;DHT22;5044;48.652;9.250;2024-01-11T08:34:02;-6.20;99.90
10010;DHT22;5044;48.652;9.250;2024-01-11T08:36:33;-6.20;99.90
10010;DHT22;5044;48.652;9.250;2024-01-11T08:39:01;-6.10;99.90
10010;DHT22;5044;48.652;9.250;2024-01-11T08:41:29;-6.00;99.90
10010;DHT22;5044;48.652;9.250;2024-01-11T08:43:58;-6.00;99.90
10010;DHT22;5044;48.652;9.250;2024-01-11T08:46:24;-5.90;99.90
10010;DHT22;5044;48.652;9.250;2024-01-11T08:48:52;-5.80;99.90
10010;DHT22;5044;48.652;9.250;2024-01-11T08:51:21;-5.80;99.90
10010;DHT22;5044;48.652;9.250;2024-01-11T08:53:48;-5.70;99.90
10010;DHT22;5044;48.652;9.250;2024-01-11T08:56:15;-5.60;99.90
10010;DHT22;5044;48.652;9.250;2024-01-11T08:58:42;-5.60;99.90
10010;DHT22;5044;48.652;9.250;2024-01-11T09:01:11;-5.40;99.90
10010;DHT22;5044;48.652;9.250;2024-01-11T09:03:38;-4.60;99.90
10010;DHT22;5044;48.652;9.250;2024-01-11T09:06:05;-5.30;99.90
10010;DHT22;5044;48.652;9.250;2024-01-11T09:08:31;-5.20;99.90
10010;DHT22;5044;48.652;9.250;2024-01-11T09:11:01;-5.10;99.90
10010;DHT22;5044;48.652;9.250;2024-01-11T09:13:29;-3.90;99.90
10010;DHT22;5044;48.652;9.250;2024-01-11T09:15:58;-4.80;99.90
10010;DHT22;5044;48.652;9.250;2024-01-11T09:18:26;-4.70;99.90
10010;DHT22;5044;48.652;9.250;2024-01-11T09:20:53;-4.60;99.90
10010;DHT22;5044;48.652;9.250;2024-01-11T09:23:21;-4.60;99.90
10010;DHT22;5044;48.652;9.250;2024-01-11T09:25:48;-3.20;99.90
10010;DHT22;5044;48.652;9.250;2024-01-11T09:28:15;-4.20;99.90
10010;DHT22;5044;48.652;9.250;2024-01-11T09:30:45;-4.00;99.90
10010;DHT22;5044;48.652;9.250;2024-01-11T09:33:11;-3.90;99.90
10010;DHT22;5044;48.652;9.250;2024-01-11T09:35:40;-3.80;99.90
10010;DHT22;5044;48.652;9.250;2024-01-11T09:38:07;-3.60;99.90
10010;DHT22;5044;48.652;9.250;2024-01-11T09:40:33;-3.50;99.90
10010;DHT22;5044;48.652;9.250;2024-01-11T09:43:03;-3.40;99.90
10010;DHT22;5044;48.652;9.250;2024-01-11T09:45:31;-3.40;99.90
10010;DHT22;5044;48.652;9.250;2024-01-11T09:48:00;-1.90;99.90
10010;DHT22;5044;48.652;9.250;2024-01-11T09:50:28;-3.10;99.90
10010;DHT22;5044;48.652;9.250;2024-01-11T09:52:58;-3.20;99.90
10010;DHT22;5044;48.652;9.250;2024-01-11T09:55:29;-3.30;99.90
10010;DHT22;5044;48.652;9.250;2024-01-11T09:57:59;-3.40;99.90
10010;DHT22;5044;48.652;9.250;2024-01-11T10:00:28;-3.20;99.90
10010;DHT22;5044;48.652;9.250;2024-01-11T10:02:55;-3.10;99.90
10010;DHT22;5044;48.652;9.250;2024-01-11T10:05:22;-3.30;99.90
10010;DHT22;5044;48.652;9.250;2024-01-11T10:07:49;-3.40;99.90
10010;DHT22;5044;48.652;9.250;2024-01-11T10:10:17;-3.50;99.90
10010;DHT22;5044;48.652;9.250;2024-01-11T10:12:48;-3.50;99.90
10010;DHT22;5044;48.652;9.250;2024-01-11T14:37:06;-0.10;96.60
10010;DHT22;5044;48.652;9.250;2024-01-11T14:39:33;-0.10;96.20
10010;DHT22;5044;48.652;9.250;2024-01-11T14:42:00;-0.20;97.20
10010;DHT22;5044;48.652;9.250;2024-01-11T14:44:30;-0.30;97.50
10010;DHT22;5044;48.652;9.250;2024-01-11T14:46:57;-0.80;98.40
10010;DHT22;5044;48.652;9.250;2024-01-11T14:49:25;-0.20;99.90
10010;DHT22;5044;48.652;9.250;2024-01-11T14:51:55;0.10;99.90
10010;DHT22;5044;48.652;9.250;2024-01-11T14:54:24;0.30;99.90
10010;DHT22;5044;48.652;9.250;2024-01-11T14:56:54;-0.60;99.90
10010;DHT22;5044;48.652;9.250;2024-01-11T14:59:21;-0.80;99.90
10010;DHT22;5044;48.652;9.250;2024-01-11T15:01:48;-0.80;99.90
10010;DHT22;5044;48.652;9.250;2024-01-11T15:04:15;-0.90;99.90
10010;DHT22;5044;48.652;9.250;2024-01-11T15:06:43;-0.40;99.90
10010;DHT22;5044;48.652;9.250;2024-01-11T15:09:16;-0.30;99.90
10010;DHT22;5044;48.652;9.250;2024-01-11T15:11:57;-1.70;99.90
10010;DHT22;5044;48.652;9.250;2024-01-11T15:14:53;-1.20;99.90
10010;DHT22;5044;48.652;9.250;2024-01-11T15:17:52;-1.20;99.90
10010;DHT22;5044;48.652;9.250;2024-01-11T15:20:30;-1.30;99.90
10010;DHT22;5044;48.652;9.250;2024-01-11T15:22:57;-1.40;99.90
10010;DHT22;5044;48.652;9.250;2024-01-11T15:25:36;-1.50;99.90
10010;DHT22;5044;48.652;9.250;2024-01-11T15:28:06;-1.30;99.90
10010;DHT22;5044;48.652;9.250;2024-01-11T15:30:55;-1.20;99.90
10010;DHT22;5044;48.652;9.250;2024-01-11T15:33:22;-1.10;99.90
10010;DHT22;5044;48.652;9.250;2024-01-11T15:35:50;-1.60;99.90
10010;DHT22;5044;48.652;9.250;2024-01-11T15:38:17;-1.60;99.90
10010;DHT22;5044;48.652;9.250;2024-01-11T15:40:44;-1.70;99.90
10010;DHT22;5044;48.652;9.250;2024-01-11T15:43:13;-1.70;99.90
10010;DHT22;5044;48.652;9.250;2024-01-11T15:45:57;-1.70;99.90
10010;DHT22;5044;48.652;9.250;2024-01-11T15:48:52;-1.90;99.90
10010;DHT22;5044;48.652;9.250;2024-01-11T15:51:36;-1.90;99.90
10010;DHT22;5044;48.652;9.250;2024-01-11T15:54:15;-1.90;99.90
10010;DHT22;5044;48.652;9.250;2024-01-11T15:56:49;-2.00;99.90
10010;DHT22;5044;48.652;9.250;2024-01-11T15:59:18;-2.00;99.90
10010;DHT22;5044;48.652;9.250;2024-01-11T16:01:56;-1.70;99.90
10010;DHT22;5044;48.652;9.250;2024-01-11T16:04:38;-1.80;99.90
10010;DHT22;5044;48.652;9.250;2024-01-11T16:07:06;-1.60;99.90
10010;DHT22;5044;48.652;9.250;2024-01-11T16:09:33;-2.70;99.90
10010;DHT22;5044;48.652;9.250;2024-01-11T16:12:32;-2.00;99.90
10010;DHT22;5044;48.652;9.250;2024-01-11T16:15:09;-2.20;99.90
10010;DHT22;5044;48.652;9.250;2024-01-11T16:17:36;-2.20;99.90
10010;DHT22;5044;48.652;9.250;2024-01-11T16:20:04;-1.40;99.90
10010;DHT22;5044;48.652;9.250;2024-01-11T16:22:32;-2.30;99.90
10010;DHT22;5044;48.652;9.250;2024-01-11T16:24:59;-1.80;99.90
10010;DHT22;5044;48.652;9.250;2024-01-11T16:27:26;-1.90;99.90
10010;DHT22;5044;48.652;9.250;2024-01-11T16:29:53;-3.00;99.90
10010;DHT22;5044;48.652;9.250;2024-01-11T16:32:31;-2.50;99.90
10010;DHT22;5044;48.652;9.250;2024-01-11T16:34:58;-2.50;99.90
10010;DHT22;5044;48.652;9.250;2024-01-11T16:37:25;-2.50;99.90
10010;DHT22;5044;48.652;9.250;2024-01-11T16:39:52;-2.90;99.90
10010;DHT22;5044;48.652;9.250;2024-01-11T16:42:20;-2.30;99.90
10010;DHT22;5044;48.652;9.250;2024-01-11T16:44:50;-2.80;99.90
10010;DHT22;5044;48.652;9.250;2024-01-11T16:47:17;-2.70;99.90
10010;DHT22;5044;48.652;9.250;2024-01-11T16:49:45;-3.00;99.90
10010;DHT22;5044;48.652;9.250;2024-01-11T16:52:13;-2.60;99.90
10010;DHT22;5044;48.652;9.250;2024-01-11T16:54:40;-2.80;99.90
10010;DHT22;5044;48.652;9.250;2024-01-11T16:57:07;-2.80;99.90
10010;DHT22;5044;48.652;9.250;2024-01-11T16:59:33;-2.90;99.90
10010;DHT22;5044;48.652;9.250;2024-01-11T17:02:02;-1.80;99.90
10010;DHT22;5044;48.652;9.250;2024-01-11T17:04:30;-4.00;99.90
10010;DHT22;5044;48.652;9.250;2024-01-11T17:07:03;-3.10;99.90
10010;DHT22;5044;48.652;9.250;2024-01-11T17:09:32;-3.40;99.90
10010;DHT22;5044;48.652;9.250;2024-01-11T17:12:03;-3.50;99.90
10010;DHT22;5044;48.652;9.250;2024-01-11T17:14:30;-3.20;99.90
10010;DHT22;5044;48.652;9.250;2024-01-11T17:16:57;-3.30;99.90
10010;DHT22;5044;48.652;9.250;2024-01-11T17:19:37;-2.80;99.90
10010;DHT22;5044;48.652;9.250;2024-01-11T17:22:06;-3.50;99.90
10010;DHT22;5044;48.652;9.250;2024-01-11T17:24:45;-3.10;99.90
10010;DHT22;5044;48.652;9.250;2024-01-11T17:27:14;-3.30;99.90
10010;DHT22;5044;48.652;9.250;2024-01-11T17:29:41;-3.50;99.90
10010;DHT22;5044;48.652;9.250;2024-01-11T17:32:11;-3.60;99.90
10010;DHT22;5044;48.652;9.250;2024-01-11T17:34:41;-3.20;99.90
10010;DHT22;5044;48.652;9.250;2024-01-11T17:40:30;-3.70;99.90
10010;DHT22;5044;48.652;9.250;2024-01-11T17:43:04;-3.60;99.90
10010;DHT22;5044;48.652;9.250;2024-01-11T17:45:33;-3.50;99.90
10010;DHT22;5044;48.652;9.250;2024-01-11T17:48:08;-3.30;99.90
10010;DHT22;5044;48.652;9.250;2024-01-11T17:50:52;-3.50;99.90
10010;DHT22;5044;48.652;9.250;2024-01-11T17:53:19;-3.90;99.90
10010;DHT22;5044;48.652;9.250;2024-01-11T17:55:51;-3.60;99.90
10010;DHT22;5044;48.652;9.250;2024-01-11T17:58:27;-3.60;99.90
10010;DHT22;5044;48.652;9.250;2024-01-11T18:00:57;-3.50;99.90
10010;DHT22;5044;48.652;9.250;2024-01-11T18:03:25;-3.60;99.90
10010;DHT22;5044;48.652;9.250;2024-01-11T18:05:54;-3.10;99.90
10010;DHT22;5044;48.652;9.250;2024-01-11T18:08:23;-3.40;99.90
10010;DHT22;5044;48.652;9.250;2024-01-11T18:10:52;-3.70;99.90
10010;DHT22;5044;48.652;9.250;2024-01-11T18:13:18;-2.90;99.90
10010;DHT22;5044;48.652;9.250;2024-01-11T18:15:45;-3.80;99.90
10010;DHT22;5044;48.652;9.250;2024-01-11T18:18:12;-3.30;99.90
10010;DHT22;5044;48.652;9.250;2024-01-11T18:20:39;-3.90;99.90
10010;DHT22;5044;48.652;9.250;2024-01-11T18:23:07;-3.70;99.90
10010;DHT22;5044;48.652;9.250;2024-01-11T18:25:34;-3.50;99.90
10010;DHT22;5044;48.652;9.250;2024-01-11T18:28:05;-3.80;99.90
10010;DHT22;5044;48.652;9.250;2024-01-11T18:30:32;-3.70;99.90
10010;DHT22;5044;48.652;9.250;2024-01-11T18:32:59;-3.30;99.90
10010;DHT22;5044;48.652;9.250;2024-01-11T18:35:26;-3.50;99.90
10010;DHT22;5044;48.652;9.250;2024-01-11T18:37:53;-3.80;99.90
10010;DHT22;5044;48.652;9.250;2024-01-11T18:40:20;-3.60;99.90
10010;DHT22;5044;48.652;9.250;2024-01-11T18:42:49;-4.00;99.90
10010;DHT22;5044;48.652;9.250;2024-01-11T18:45:18;-4.00;99.90
10010;DHT22;5044;48.652;9.250;2024-01-11T18:47:45;-4.00;99.90
10010;DHT22;5044;48.652;9.250;2024-01-11T18:50:12;-4.00;99.90
10010;DHT22;5044;48.652;9.250;2024-01-11T18:52:40;-4.40;99.90
10010;DHT22;5044;48.652;9.250;2024-01-11T18:55:09;-4.00;99.90
10010;DHT22;5044;48.652;9.250;2024-01-11T18:57:36;-4.10;99.90
10010;DHT22;5044;48.652;9.250;2024-01-11T19:00:03;-4.10;99.90
10010;DHT22;5044;48.652;9.250;2024-01-11T19:02:32;-4.10;99.90
10010;DHT22;5044;48.652;9.250;2024-01-11T19:04:59;-4.20;99.90
10010;DHT22;5044;48.652;9.250;2024-01-11T19:07:26;-4.20;99.90
10010;DHT22;5044;48.652;9.250;2024-01-11T19:09:53;-3.80;99.90
10010;DHT22;5044;48.652;9.250;2024-01-11T19:12:21;-4.30;99.90
10010;DHT22;5044;48.652;9.250;2024-01-11T19:14:48;-3.10;99.90
10010;DHT22;5044;48.652;9.250;2024-01-11T19:17:15;-3.90;99.90
10010;DHT22;5044;48.652;9.250;2024-01-11T19:19:43;-4.30;99.90
10010;DHT22;5044;48.652;9.250;2024-01-11T19:22:10;-4.70;99.90
10010;DHT22;5044;48.652;9.250;2024-01-11T19:24:38;-4.10;99.90
10010;DHT22;5044;48.652;9.250;2024-01-11T19:27:05;-4.30;99.90
10010;DHT22;5044;48.652;9.250;2024-01-11T19:29:32;-3.40;99.90
10010;DHT22;5044;48.652;9.250;2024-01-11T19:31:59;-4.40;99.90
10010;DHT22;5044;48.652;9.250;2024-01-11T19:34:26;-4.40;99.90
10010;DHT22;5044;48.652;9.250;2024-01-11T19:36:55;-4.50;99.90
10010;DHT22;5044;48.652;9.250;2024-01-11T19:39:22;-4.50;99.90
10010;DHT22;5044;48.652;9.250;2024-01-11T19:41:49;-4.10;99.90
10010;DHT22;5044;48.652;9.250;2024-01-11T19:44:16;-4.40;99.90
10010;DHT22;5044;48.652;9.250;2024-01-11T19:46:43;-3.60;99.90
10010;DHT22;5044;48.652;9.250;2024-01-11T19:49:10;-5.00;99.90
10010;DHT22;5044;48.652;9.250;2024-01-11T19:51:37;-3.70;99.90
10010;DHT22;5044;48.652;9.250;2024-01-11T19:54:06;-4.00;99.90
10010;DHT22;5044;48.652;9.250;2024-01-11T19:56:33;-4.00;99.90
10010;DHT22;5044;48.652;9.250;2024-01-11T19:58:59;-5.50;99.90
10010;DHT22;5044;48.652;9.250;2024-01-11T20:01:26;-4.00;99.90
10010;DHT22;5044;48.652;9.250;2024-01-11T20:03:53;-4.70;99.90
10010;DHT22;5044;48.652;9.250;2024-01-11T20:06:21;-4.30;99.90
10010;DHT22;5044;48.652;9.250;2024-01-11T20:08:50;-4.00;99.90
10010;DHT22;5044;48.652;9.250;2024-01-11T20:11:18;-4.70;99.90
10010;DHT22;5044;48.652;9.250;2024-01-11T20:13:45;-4.70;99.90
10010;DHT22;5044;48.652;9.250;2024-01-11T20:16:12;-3.80;99.90
10010;DHT22;5044;48.652;9.250;2024-01-11T20:18:39;-4.70;99.90